createdAt,value
2023-11-24T00:01:36.547Z,10.88
2023-11-24T00:04:38.802Z,10.80
2023-11-24T00:07:41.350Z,10.05
2023-11-24T00:10:48.273Z,10.63
2023-11-24T00:13:54.913Z,7.20
2023-11-24T00:16:58.063Z,10.10
2023-11-24T00:20:02.979Z,9.77
2023-11-24T00:23:05.035Z,10.55
2023-11-24T00:26:07.684Z,11.05
2023-11-24T00:29:09.566Z,10.73
2023-11-24T00:32:11.387Z,10.80
2023-11-24T00:35:13.233Z,11.30
2023-11-24T00:38:15.072Z,10.68
2023-11-24T00:41:20.436Z,11.00
2023-11-24T00:44:22.262Z,10.33
2023-11-24T00:47:24.277Z,10.73
2023-11-24T00:50:26.139Z,10.75
2023-11-24T00:53:28.003Z,9.65
2023-11-24T00:56:33.206Z,11.13
2023-11-24T00:59:39.586Z,10.65
2023-11-24T01:02:41.484Z,10.40
2023-11-24T01:05:46.953Z,10.90
2023-11-24T01:08:48.991Z,9.98
2023-11-24T01:11:51.456Z,10.32
2023-11-24T01:14:53.907Z,11.70
2023-11-24T01:17:56.254Z,10.50
2023-11-24T01:20:58.349Z,10.43
2023-11-24T01:24:04.300Z,10.13
2023-11-24T01:27:09.384Z,11.00
2023-11-24T01:30:11.980Z,10.20
2023-11-24T01:33:18.712Z,11.57
2023-11-24T01:36:20.901Z,11.03
2023-11-24T01:39:22.925Z,9.60
2023-11-24T01:42:27.968Z,10.55
2023-11-24T01:45:29.980Z,10.20
2023-11-24T01:48:32.043Z,10.75
2023-11-24T01:51:34.385Z,10.55
2023-11-24T01:54:38.374Z,10.75
2023-11-24T01:57:41.458Z,12.10
2023-11-24T02:00:47.487Z,10.80
2023-11-24T02:03:49.630Z,11.68
2023-11-24T02:06:51.697Z,10.43
2023-11-24T02:09:53.716Z,9.88
2023-11-24T02:12:59.613Z,10.85
2023-11-24T02:16:01.995Z,9.37
2023-11-24T02:19:07.092Z,10.23
2023-11-24T02:22:09.021Z,9.80
2023-11-24T02:25:12.242Z,11.02
2023-11-24T02:28:17.314Z,9.43
2023-11-24T02:31:23.698Z,10.23
2023-11-24T02:34:25.576Z,8.80
2023-11-24T02:37:30.359Z,10.20
2023-11-24T02:40:34.481Z,11.05
2023-11-24T02:43:36.280Z,11.05
2023-11-24T02:46:41.380Z,10.17
2023-11-24T02:49:43.820Z,9.88
2023-11-24T02:52:46.176Z,9.68
2023-11-24T02:55:48.589Z,9.27
2023-11-24T02:58:53.533Z,10.15
2023-11-24T03:01:55.418Z,10.32
2023-11-24T03:04:57.562Z,9.93
2023-11-24T03:07:59.616Z,9.50
2023-11-24T03:11:06.423Z,9.35
2023-11-24T03:14:12.179Z,9.13
2023-11-24T03:17:14.021Z,10.53
2023-11-24T03:20:16.550Z,9.73
2023-11-24T03:23:19.409Z,9.63
2023-11-24T03:26:21.238Z,9.40
2023-11-24T03:29:23.179Z,9.20
2023-11-24T03:32:28.118Z,11.07
2023-11-24T03:35:33.614Z,10.05
2023-11-24T03:38:35.528Z,9.23
2023-11-24T03:41:40.128Z,8.45
2023-11-24T03:44:45.656Z,11.00
2023-11-24T03:47:47.692Z,10.03
2023-11-24T03:50:54.875Z,9.20
2023-11-24T03:54:00.404Z,10.18
2023-11-24T03:57:02.317Z,6.97
2023-11-24T04:00:08.753Z,8.60
2023-11-24T04:03:14.292Z,9.88
2023-11-24T04:06:16.504Z,9.52
2023-11-24T04:09:18.468Z,9.47
2023-11-24T04:12:20.351Z,9.63
2023-11-24T04:15:22.272Z,9.45
2023-11-24T04:18:27.590Z,9.53
2023-11-24T04:21:33.885Z,9.90
2023-11-24T04:24:35.952Z,9.73
2023-11-24T04:27:38.608Z,9.55
2023-11-24T04:30:40.517Z,9.52
2023-11-24T04:33:46.970Z,9.38
2023-11-24T04:36:52.411Z,9.25
2023-11-24T04:39:54.518Z,9.73
2023-11-24T04:43:00.850Z,9.40
2023-11-24T04:46:07.194Z,8.82
2023-11-24T04:49:09.150Z,8.07
2023-11-24T04:52:15.429Z,9.18
2023-11-24T04:55:21.877Z,9.63
2023-11-24T04:58:23.754Z,8.68
2023-11-24T05:01:30.396Z,11.55
2023-11-24T05:04:37.595Z,9.35
2023-11-24T05:07:39.493Z,9.65
2023-11-24T05:10:43.117Z,9.40
2023-11-24T05:13:45.399Z,10.80
2023-11-24T05:16:47.394Z,10.07
2023-11-24T05:19:52.457Z,9.37
2023-11-24T05:22:57.964Z,8.48
2023-11-24T05:26:00.017Z,8.13
2023-11-24T05:29:01.990Z,8.48
2023-11-24T05:32:07.340Z,8.25
2023-11-24T05:35:09.647Z,8.10
2023-11-24T05:38:15.619Z,8.15
2023-11-24T05:41:21.228Z,9.50
2023-11-24T05:44:23.220Z,9.10
2023-11-24T05:47:28.704Z,8.18
2023-11-24T05:50:35.031Z,7.20
2023-11-24T05:53:36.922Z,8.80
2023-11-24T05:56:38.842Z,8.35
2023-11-24T05:59:40.811Z,8.82
2023-11-24T06:02:44.335Z,9.30
2023-11-24T06:05:46.228Z,8.98
2023-11-24T06:08:48.052Z,9.43
2023-11-24T06:11:49.963Z,7.00
2023-11-24T06:14:51.900Z,9.93
2023-11-24T06:17:54.768Z,8.82
2023-11-24T06:20:56.589Z,8.17
2023-11-24T06:23:58.855Z,10.25
2023-11-24T06:27:00.781Z,9.23
2023-11-24T06:30:06.661Z,8.23
2023-11-24T06:33:08.646Z,9.07
2023-11-24T06:36:11.284Z,8.45
2023-11-24T06:39:13.259Z,8.48
2023-11-24T06:42:15.136Z,10.37
2023-11-24T06:45:17.333Z,10.13
2023-11-24T06:48:19.473Z,11.50
2023-11-24T06:51:21.357Z,9.00
2023-11-24T06:54:23.631Z,8.57
2023-11-24T06:57:25.615Z,9.32
2023-11-24T07:00:27.568Z,11.27
2023-11-24T07:03:29.786Z,8.70
2023-11-24T07:06:31.675Z,8.90
2023-11-24T07:09:33.791Z,8.48
2023-11-24T07:12:35.945Z,8.50
2023-11-24T07:15:37.900Z,8.98
2023-11-24T07:18:40.183Z,8.73
2023-11-24T07:21:42.214Z,8.75
2023-11-24T07:24:44.343Z,7.90
2023-11-24T07:27:46.726Z,8.98
2023-11-24T07:30:50.232Z,9.18
2023-11-24T07:33:52.235Z,9.33
2023-11-24T07:36:55.023Z,8.40
2023-11-24T07:39:57.182Z,8.57
2023-11-24T07:42:59.207Z,9.63
2023-11-24T07:46:01.460Z,8.93
2023-11-24T07:49:04.929Z,8.23
2023-11-24T07:52:07.057Z,9.43
2023-11-24T07:55:09.376Z,9.40
2023-11-24T07:58:12.362Z,9.77
2023-11-24T08:01:15.202Z,8.43
2023-11-24T08:04:17.519Z,8.17
2023-11-24T08:07:20.011Z,8.15
2023-11-24T08:10:22.389Z,8.15
2023-11-24T08:13:24.807Z,8.50
2023-11-24T08:16:26.970Z,7.53
2023-11-24T08:19:29.005Z,7.25
2023-11-24T08:22:32.514Z,7.07
2023-11-24T08:25:36.604Z,6.93
2023-11-24T08:28:38.780Z,8.03
2023-11-24T08:31:45.730Z,7.57
2023-11-24T08:34:49.079Z,7.35
2023-11-24T08:37:51.203Z,6.60
2023-11-24T08:40:53.225Z,6.20
2023-11-24T08:43:55.202Z,6.80
2023-11-24T08:46:58.287Z,7.00
2023-11-24T08:50:00.896Z,6.90
2023-11-24T08:53:05.727Z,6.78
2023-11-24T08:56:08.054Z,7.18
2023-11-24T08:59:12.156Z,7.75
2023-11-24T09:02:14.313Z,7.05
2023-11-24T09:05:16.883Z,6.97
2023-11-24T09:08:20.605Z,7.60
2023-11-24T09:11:23.716Z,6.30
2023-11-24T09:14:25.882Z,5.07
2023-11-24T09:17:28.020Z,4.70
2023-11-24T09:20:29.864Z,3.73
2023-11-24T09:23:32.112Z,4.20
2023-11-24T09:26:33.966Z,4.05
2023-11-24T09:29:35.831Z,3.90
2023-11-24T09:32:39.194Z,2.20
2023-11-24T09:35:41.426Z,1.63
2023-11-24T09:38:45.676Z,1.10
2023-11-24T09:41:49.574Z,1.00
2023-11-24T09:44:56.159Z,1.00
2023-11-24T09:47:58.277Z,1.40
2023-11-24T09:51:04.972Z,1.15
2023-11-24T09:54:07.535Z,1.63
2023-11-24T09:57:09.947Z,1.10
2023-11-24T10:00:12.745Z,0.90
2023-11-24T10:03:14.727Z,1.03
2023-11-24T10:06:16.596Z,1.20
2023-11-24T10:09:26.912Z,1.33
2023-11-24T10:12:31.339Z,1.83
2023-11-24T10:15:33.258Z,1.90
2023-11-24T10:18:35.165Z,1.10
2023-11-24T10:21:37.376Z,0.90
2023-11-24T10:24:39.487Z,1.08
2023-11-24T10:27:44.394Z,0.70
2023-11-24T10:30:46.613Z,0.85
2023-11-24T10:33:48.700Z,1.00
2023-11-24T10:36:50.708Z,0.80
2023-11-24T10:39:52.947Z,0.80
2023-11-24T10:42:55.438Z,0.70
2023-11-24T10:45:58.112Z,1.08
2023-11-24T10:49:07.892Z,1.20
2023-11-24T10:52:22.637Z,0.73
2023-11-24T10:55:24.666Z,0.82
2023-11-24T10:58:26.996Z,0.90
2023-11-24T11:01:29.438Z,0.73
2023-11-24T11:04:31.429Z,0.70
2023-11-24T11:07:54.671Z,0.70
2023-11-24T11:11:03.057Z,0.90
2023-11-24T11:14:09.046Z,0.60
2023-11-24T11:17:21.259Z,0.75
2023-11-24T11:20:26.510Z,1.00
2023-11-24T11:23:28.376Z,1.00
2023-11-24T11:26:50.311Z,0.90
2023-11-24T11:29:54.747Z,0.82
2023-11-24T11:33:12.131Z,0.63
2023-11-24T11:36:15.913Z,0.90
2023-11-24T11:39:28.997Z,0.82
2023-11-24T11:42:34.133Z,0.93
2023-11-24T11:45:55.116Z,0.60
2023-11-24T11:48:59.466Z,1.02
2023-11-24T11:52:04.942Z,0.80
2023-11-24T11:55:07.191Z,1.10
2023-11-24T11:58:09.226Z,0.93
2023-11-24T12:01:11.086Z,0.70
2023-11-24T12:04:13.044Z,1.15
2023-11-24T12:07:15.226Z,1.07
2023-11-24T12:10:17.283Z,0.70
2023-11-24T12:13:19.210Z,0.80
2023-11-24T12:16:28.475Z,0.90
2023-11-24T12:19:34.998Z,0.80
2023-11-24T12:22:39.105Z,0.70
2023-11-24T12:25:41.281Z,0.80
2023-11-24T12:28:44.762Z,0.98
2023-11-24T12:31:46.790Z,0.90
2023-11-24T12:34:48.815Z,0.85
2023-11-24T12:37:50.676Z,0.87
2023-11-24T12:40:52.718Z,0.70
2023-11-24T12:44:00.761Z,0.70
2023-11-24T12:50:34.120Z,0.80
2023-11-24T12:53:36.037Z,0.80
2023-11-24T12:56:39.465Z,1.33
2023-11-24T12:59:41.299Z,1.13
2023-11-24T13:02:43.426Z,0.77
2023-11-24T13:05:45.926Z,0.80
2023-11-24T13:08:48.903Z,0.90
2023-11-24T13:11:51.946Z,0.82
2023-11-24T13:14:53.895Z,1.40
2023-11-24T13:17:57.157Z,0.90
2023-11-24T13:20:59.367Z,0.95
2023-11-24T13:24:01.259Z,0.80
2023-11-24T13:27:05.271Z,0.68
2023-11-24T13:30:13.433Z,1.33
2023-11-24T13:33:16.429Z,1.08
2023-11-24T13:36:18.369Z,0.83
2023-11-24T13:39:26.072Z,1.00
2023-11-24T13:42:27.984Z,1.00
2023-11-24T13:45:29.959Z,0.80
2023-11-24T13:48:33.172Z,0.90
2023-11-24T13:51:35.300Z,0.90
2023-11-24T13:54:39.245Z,0.80
2023-11-24T13:57:41.258Z,1.00
2023-11-24T14:00:43.275Z,1.00
2023-11-24T14:03:45.746Z,1.00
2023-11-24T14:06:49.727Z,1.05
2023-11-24T14:09:51.649Z,1.00
2023-11-24T14:12:54.233Z,0.93
2023-11-24T14:15:56.147Z,0.90
2023-11-24T14:19:00.823Z,0.90
2023-11-24T14:22:05.840Z,0.77
2023-11-24T14:25:09.805Z,0.73
2023-11-24T14:28:11.951Z,0.70
2023-11-24T14:31:13.810Z,0.80
2023-11-24T14:34:19.787Z,0.88
2023-11-24T14:37:22.454Z,0.88
2023-11-24T14:40:24.730Z,0.70
2023-11-24T14:43:26.768Z,1.05
2023-11-24T14:46:32.889Z,0.88
2023-11-24T14:49:34.975Z,0.93
2023-11-24T14:52:38.193Z,0.88
2023-11-24T14:55:40.048Z,0.85
2023-11-24T14:58:46.130Z,0.90
2023-11-24T15:01:51.741Z,0.90
2023-11-24T15:04:53.937Z,1.00
2023-11-24T15:07:56.023Z,0.93
2023-11-24T15:11:00.970Z,1.00
2023-11-24T15:14:10.110Z,0.95
2023-11-24T15:17:17.277Z,1.50
2023-11-24T15:20:27.286Z,0.90
2023-11-24T15:23:30.055Z,1.10
2023-11-24T15:26:34.031Z,1.20
2023-11-24T15:29:42.150Z,1.15
2023-11-24T15:32:46.912Z,1.60
2023-11-24T15:35:51.646Z,2.15
2023-11-24T15:38:56.108Z,1.58
2023-11-24T15:41:58.200Z,1.85
2023-11-24T15:45:01.632Z,1.48
2023-11-24T15:48:09.139Z,1.75
2023-11-24T15:51:23.364Z,1.80
2023-11-24T15:54:27.928Z,1.45
2023-11-24T15:57:32.721Z,1.88
2023-11-24T16:00:39.116Z,2.50
2023-11-24T16:03:41.055Z,1.77
2023-11-24T16:06:47.635Z,1.50
2023-11-24T16:09:52.323Z,1.60
2023-11-24T16:12:55.174Z,1.40
2023-11-24T16:16:01.461Z,1.45
2023-11-24T16:19:06.868Z,1.52
2023-11-24T16:22:12.347Z,1.55
2023-11-24T16:25:19.698Z,1.80
2023-11-24T16:28:25.245Z,1.70
2023-11-24T16:31:27.241Z,1.58
2023-11-24T16:34:33.495Z,1.50
2023-11-24T16:37:36.828Z,2.35
2023-11-24T16:40:38.767Z,3.10
2023-11-24T16:43:43.747Z,3.15
2023-11-24T16:47:00.067Z,2.50
2023-11-24T16:50:03.019Z,2.42
2023-11-24T16:53:06.399Z,2.47
2023-11-24T16:56:08.231Z,2.13
2023-11-24T16:59:13.134Z,2.20
2023-11-24T17:02:18.145Z,1.95
2023-11-24T17:05:20.191Z,2.10
2023-11-24T17:08:25.211Z,1.73
2023-11-24T17:11:29.836Z,1.70
2023-11-24T17:14:31.662Z,1.70
2023-11-24T17:17:39.115Z,2.17
2023-11-24T17:20:46.573Z,1.58
2023-11-24T17:23:49.790Z,2.03
2023-11-24T17:26:54.699Z,1.83
2023-11-24T17:30:00.283Z,2.00
2023-11-24T17:33:02.196Z,1.63
2023-11-24T17:36:12.228Z,1.17
2023-11-24T17:39:14.207Z,1.63
2023-11-24T17:42:16.160Z,1.23
2023-11-24T17:45:22.375Z,1.55
2023-11-24T17:48:27.882Z,2.10
2023-11-24T17:51:29.824Z,1.90
2023-11-24T17:54:36.312Z,2.30
2023-11-24T17:57:41.711Z,2.63
2023-11-24T18:00:43.536Z,2.88
2023-11-24T18:03:48.374Z,2.80
2023-11-24T18:06:56.507Z,3.05
2023-11-24T18:09:58.415Z,3.35
2023-11-24T18:13:03.969Z,3.00
2023-11-24T18:16:10.419Z,2.85
2023-11-24T18:19:12.320Z,3.00
2023-11-24T18:22:17.850Z,3.00
2023-11-24T18:25:20.641Z,3.10
2023-11-24T18:28:22.552Z,2.60
2023-11-24T18:31:28.249Z,2.53
2023-11-24T18:34:34.443Z,2.20
2023-11-24T18:37:36.352Z,1.90
2023-11-24T18:40:41.855Z,2.07
2023-11-24T18:43:48.294Z,1.30
2023-11-24T18:46:50.102Z,1.50
2023-11-24T18:49:54.817Z,1.38
2023-11-24T18:53:00.278Z,1.20
2023-11-24T18:56:02.265Z,3.15
2023-11-24T18:59:08.632Z,1.38
2023-11-24T19:02:13.267Z,1.42
2023-11-24T19:05:15.219Z,1.10
2023-11-24T19:08:21.522Z,1.20
2023-11-24T19:11:26.469Z,1.20
2023-11-24T19:14:28.335Z,1.40
2023-11-24T19:17:34.530Z,1.10
2023-11-24T19:20:39.103Z,1.20
2023-11-24T19:23:41.466Z,1.00
2023-11-24T19:26:47.416Z,1.20
2023-11-24T19:29:49.259Z,1.37
2023-11-24T19:32:56.710Z,1.15
2023-11-24T19:35:59.304Z,1.33
2023-11-24T19:39:04.211Z,1.02
2023-11-24T19:42:06.503Z,0.87
2023-11-24T19:45:13.344Z,0.90
2023-11-24T19:48:15.211Z,1.20
2023-11-24T19:51:21.639Z,1.00
2023-11-24T19:54:26.256Z,1.20
2023-11-24T19:57:31.034Z,1.15
2023-11-24T20:00:36.344Z,0.90
2023-11-24T20:03:46.408Z,0.95
2023-11-24T20:06:48.456Z,0.90
2023-11-24T20:09:50.358Z,0.90
2023-11-24T20:12:54.709Z,0.80
2023-11-24T20:15:58.284Z,0.70
2023-11-24T20:19:03.198Z,0.80
2023-11-24T20:22:09.608Z,1.00
2023-11-24T20:25:11.568Z,1.02
2023-11-24T20:28:17.040Z,1.00
2023-11-24T20:31:25.234Z,0.90
2023-11-24T20:34:27.428Z,1.00
2023-11-24T20:37:29.308Z,0.98
2023-11-24T20:40:31.293Z,0.90
2023-11-24T20:43:33.224Z,1.00
2023-11-24T20:46:38.578Z,0.82
2023-11-24T20:49:43.908Z,1.10
2023-11-24T20:52:46.584Z,0.90
2023-11-24T20:55:51.344Z,1.47
2023-11-24T20:58:53.506Z,0.82
2023-11-24T21:01:55.425Z,1.10
2023-11-24T21:05:01.589Z,0.80
2023-11-24T21:08:07.977Z,0.87
2023-11-24T21:11:10.032Z,0.70
2023-11-24T21:14:15.404Z,1.02
2023-11-24T21:17:20.895Z,1.02
2023-11-24T21:20:24.179Z,0.90
2023-11-24T21:23:30.142Z,1.02
2023-11-24T21:26:35.661Z,1.10
2023-11-24T21:29:37.550Z,1.13
2023-11-24T21:32:42.315Z,0.90
2023-11-24T21:35:49.599Z,1.17
2023-11-24T21:38:51.510Z,1.10
2023-11-24T21:41:56.885Z,1.25
2023-11-24T21:44:58.788Z,1.10
2023-11-24T21:48:00.701Z,0.90
2023-11-24T21:51:08.935Z,1.10
2023-11-24T21:54:14.569Z,0.93
2023-11-24T21:57:16.436Z,1.00
2023-11-24T22:00:22.767Z,0.95
2023-11-24T22:03:27.526Z,1.02
2023-11-24T22:06:35.423Z,0.90
2023-11-24T22:09:40.200Z,1.20
2023-11-24T22:12:47.518Z,0.77
2023-11-24T22:15:50.545Z,1.30
2023-11-24T22:18:56.753Z,1.30
2023-11-24T22:22:01.434Z,1.00
2023-11-24T22:25:06.188Z,1.10
2023-11-24T22:28:12.409Z,1.00
2023-11-24T22:31:16.128Z,1.40
2023-11-24T22:34:21.625Z,1.10
2023-11-24T22:37:26.389Z,1.08
2023-11-24T22:40:28.516Z,1.13
2023-11-24T22:43:30.434Z,1.13
2023-11-24T22:46:37.580Z,0.80
2023-11-24T22:49:43.798Z,1.13
2023-11-24T22:52:45.965Z,1.15
2023-11-24T22:55:51.273Z,0.90
2023-11-24T22:58:56.155Z,1.10
2023-11-24T23:01:58.288Z,0.90
2023-11-24T23:05:04.265Z,1.53
2023-11-24T23:08:06.854Z,1.20
2023-11-24T23:11:15.919Z,1.30
2023-11-24T23:14:19.288Z,1.17
2023-11-24T23:17:25.455Z,1.25
2023-11-24T23:20:27.437Z,1.40
2023-11-24T23:23:33.752Z,1.15
2023-11-24T23:26:39.234Z,1.30
2023-11-24T23:29:41.909Z,1.30
2023-11-24T23:32:48.530Z,1.20
2023-11-24T23:35:56.926Z,1.30
2023-11-24T23:38:59.032Z,1.20
2023-11-24T23:42:04.074Z,1.35
2023-11-24T23:45:06.307Z,1.48
2023-11-24T23:48:09.736Z,1.40
2023-11-24T23:51:16.191Z,1.30
2023-11-24T23:54:22.554Z,1.60
2023-11-24T23:57:24.446Z,1.20
